Time;durP1;ratioP1;P1;durP2;ratioP2;P2;SDS_P1;SDS_P2;PMS_P1;PMS_P2;Temp;Humidity;BMP_temperature;BMP_pressure;BME280_temperature;BME280_humidity;BME280_pressure;Samples;Min_cycle;Max_cycle;Signal;HPM_P1;HPM_P2
2021/10/11 00:01:25;;;;;;;4.30;1.42;;;13.00;99.90;;;;;;6273595;22;20031;-89
2021/10/11 00:03:51;;;;;;;3.95;1.42;;;13.00;99.90;;;;;;6221567;22;20027;-90
2021/10/11 00:06:17;;;;;;;3.83;1.05;;;12.90;99.90;;;;;;6246708;22;20003;-89
2021/10/11 00:08:42;;;;;;;5.20;1.75;;;12.90;99.90;;;;;;6246378;22;20011;-89
2021/10/11 00:11:08;;;;;;;3.78;1.35;;;12.90;99.90;;;;;;6246130;22;20082;-89
2021/10/11 00:13:34;;;;;;;3.13;1.25;;;12.90;99.90;;;;;;6246563;22;20004;-89
2021/10/11 00:16:00;;;;;;;4.20;1.60;;;12.90;99.90;;;;;;6246515;22;20008;-90
2021/10/11 00:18:25;;;;;;;3.42;0.90;;;12.90;99.90;;;;;;6245905;22;20011;-89
2021/10/11 00:20:52;;;;;;;4.47;1.60;;;12.90;99.90;;;;;;6246337;22;20010;-89
2021/10/11 00:23:18;;;;;;;3.55;1.70;;;12.90;99.90;;;;;;6246628;22;20007;-89
2021/10/11 00:25:43;;;;;;;2.50;1.35;;;13.00;99.90;;;;;;6273528;22;20043;-90
2021/10/11 00:28:09;;;;;;;3.55;1.30;;;13.00;99.90;;;;;;6246226;22;20442;-90
2021/10/11 00:30:35;;;;;;;3.95;1.38;;;12.90;99.90;;;;;;6246029;22;20054;-90
2021/10/11 00:33:02;;;;;;;3.20;1.20;;;12.90;99.90;;;;;;6247274;22;20006;-89
2021/10/11 00:35:29;;;;;;;2.50;1.20;;;12.90;99.90;;;;;;6221956;22;20122;-89
2021/10/11 00:37:55;;;;;;;3.65;1.20;;;12.80;99.90;;;;;;6247280;22;20095;-89
2021/10/11 00:40:21;;;;;;;2.72;1.20;;;12.80;99.90;;;;;;6247328;22;20018;-89
2021/10/11 00:42:47;;;;;;;6.28;1.20;;;12.70;99.90;;;;;;6247723;22;20087;-89
2021/10/11 00:45:13;;;;;;;4.60;1.27;;;12.70;99.90;;;;;;6273912;22;20486;-89
2021/10/11 00:47:38;;;;;;;5.00;1.33;;;12.60;99.90;;;;;;6246192;22;19999;-90
2021/10/11 00:50:05;;;;;;;4.35;1.38;;;12.60;99.90;;;;;;6246372;22;20033;-89
2021/10/11 00:52:31;;;;;;;3.70;1.33;;;12.50;99.90;;;;;;6246562;22;20010;-89
2021/10/11 00:54:57;;;;;;;6.03;1.58;;;12.50;99.90;;;;;;6245961;22;20003;-89
2021/10/11 00:57:22;;;;;;;3.00;1.08;;;12.50;99.90;;;;;;6250174;22;20008;-89
2021/10/11 00:59:48;;;;;;;1.95;1.10;;;12.40;99.90;;;;;;6252248;22;20000;-89
2021/10/11 01:02:14;;;;;;;3.80;1.20;;;12.50;99.90;;;;;;6251346;22;20015;-90
2021/10/11 01:04:40;;;;;;;3.90;1.20;;;12.40;99.90;;;;;;6278958;22;20075;-89
2021/10/11 01:07:06;;;;;;;2.72;1.23;;;12.40;99.90;;;;;;6252096;22;20327;-89
2021/10/11 01:09:31;;;;;;;2.17;1.20;;;12.40;99.90;;;;;;6227003;22;20419;-89
2021/10/11 01:11:59;;;;;;;3.03;1.30;;;12.40;99.90;;;;;;6278440;22;20075;-89
2021/10/11 01:14:25;;;;;;;2.85;0.93;;;12.40;99.90;;;;;;6252204;22;20049;-89
2021/10/11 01:16:51;;;;;;;2.03;1.02;;;12.40;99.90;;;;;;6278238;22;20082;-90
2021/10/11 01:19:17;;;;;;;2.53;1.20;;;12.40;99.90;;;;;;6278654;22;20027;-89
2021/10/11 01:21:43;;;;;;;3.90;1.10;;;12.40;99.90;;;;;;6251859;22;20000;-90
2021/10/11 01:24:09;;;;;;;4.65;1.23;;;12.30;99.90;;;;;;6278893;22;20079;-90
2021/10/11 01:26:45;;;;;;;1.83;1.08;;;12.30;99.90;;;;;;6281380;22;20078;-89
2021/10/11 01:29:14;;;;;;;3.05;1.02;;;12.20;99.90;;;;;;6251473;22;20022;-89
2021/10/11 01:31:42;;;;;;;3.47;1.15;;;12.20;99.90;;;;;;6278233;22;19995;-90
2021/10/11 01:34:08;;;;;;;2.03;1.05;;;12.10;99.90;;;;;;6251919;22;20003;-89
2021/10/11 01:36:34;;;;;;;2.15;1.10;;;12.00;99.90;;;;;;6251646;22;20006;-90
2021/10/11 01:39:04;;;;;;;2.72;1.13;;;12.00;99.90;;;;;;6251822;22;20065;-90
2021/10/11 01:41:30;;;;;;;5.90;1.80;;;12.00;99.90;;;;;;6251253;22;20007;-89
2021/10/11 01:43:56;;;;;;;3.80;1.75;;;12.10;99.90;;;;;;6250229;22;20006;-89
2021/10/11 01:46:21;;;;;;;3.33;1.55;;;12.10;99.90;;;;;;6250133;22;20091;-90
2021/10/11 01:48:47;;;;;;;3.10;1.38;;;12.10;99.90;;;;;;6251055;22;20000;-90
2021/10/11 01:51:14;;;;;;;2.75;1.45;;;12.10;99.90;;;;;;6251437;22;20006;-90
2021/10/11 01:53:41;;;;;;;3.78;1.50;;;12.10;99.90;;;;;;6278424;22;20003;-90
2021/10/11 01:56:07;;;;;;;3.78;1.30;;;12.10;99.90;;;;;;6250987;22;20004;-89
2021/10/11 01:58:33;;;;;;;4.75;1.50;;;12.10;99.90;;;;;;6245729;23;20016;-90
2021/10/11 02:00:59;;;;;;;3.08;1.52;;;12.10;99.90;;;;;;6245549;23;20007;-89
2021/10/11 02:03:26;;;;;;;4.78;1.75;;;12.10;99.90;;;;;;6245989;23;20000;-90
2021/10/11 02:05:52;;;;;;;4.90;1.70;;;12.10;99.90;;;;;;6245177;23;20424;-90
2021/10/11 02:08:17;;;;;;;5.07;1.58;;;12.00;99.90;;;;;;6246200;23;20075;-90
2021/10/11 02:10:43;;;;;;;3.72;1.40;;;12.00;99.90;;;;;;6245857;23;20052;-88
2021/10/11 02:13:09;;;;;;;3.03;1.58;;;12.00;99.90;;;;;;6247353;23;20035;-90
2021/10/11 02:15:35;;;;;;;3.08;1.48;;;11.90;99.90;;;;;;6246250;23;20170;-90
2021/10/11 02:18:01;;;;;;;3.17;1.30;;;11.80;99.90;;;;;;6246066;23;20001;-92
2021/10/11 02:20:26;;;;;;;3.50;1.33;;;11.70;99.90;;;;;;6246489;23;19996;-90
2021/10/11 02:22:52;;;;;;;2.00;1.10;;;11.70;99.90;;;;;;6246238;23;20000;-89
2021/10/11 02:25:18;;;;;;;4.57;1.30;;;11.60;99.90;;;;;;6246635;23;20024;-90
2021/10/11 02:27:44;;;;;;;2.45;1.13;;;11.60;99.90;;;;;;6246700;23;20000;-90
2021/10/11 02:30:11;;;;;;;5.80;1.70;;;11.50;99.90;;;;;;6246623;23;20038;-90
2021/10/11 02:32:39;;;;;;;3.65;1.35;;;11.50;99.90;;;;;;6246632;23;20003;-89
2021/10/11 02:35:06;;;;;;;3.85;1.42;;;11.50;99.90;;;;;;6245938;23;20000;-90
2021/10/11 02:37:33;;;;;;;4.65;1.30;;;11.40;99.90;;;;;;6247257;23;20097;-89
2021/10/11 02:39:59;;;;;;;3.47;1.20;;;11.30;99.90;;;;;;6246122;23;20000;-90
2021/10/11 02:42:25;;;;;;;4.80;1.52;;;11.30;99.90;;;;;;6220617;23;20000;-89
2021/10/11 02:44:51;;;;;;;2.80;1.30;;;11.20;99.90;;;;;;6246177;23;20478;-88
2021/10/11 02:47:18;;;;;;;5.13;1.33;;;11.20;99.90;;;;;;6246569;23;20004;-89
2021/10/11 02:49:44;;;;;;;2.72;1.20;;;11.20;99.90;;;;;;6246350;23;20004;-89
2021/10/11 02:52:11;;;;;;;4.07;1.15;;;11.10;99.90;;;;;;6246209;23;20008;-88
2021/10/11 02:54:37;;;;;;;4.57;1.60;;;11.10;99.90;;;;;;6245937;23;20011;-88
2021/10/11 02:57:02;;;;;;;3.63;1.25;;;11.10;99.90;;;;;;6246094;23;20012;-88
2021/10/11 02:59:28;;;;;;;2.85;1.40;;;11.10;99.90;;;;;;6274953;22;20008;-89
2021/10/11 03:01:54;;;;;;;6.18;1.58;;;11.10;99.90;;;;;;6250826;22;19996;-89
2021/10/11 03:04:20;;;;;;;4.22;1.50;;;11.00;99.90;;;;;;6251630;22;20000;-88
2021/10/11 03:06:45;;;;;;;3.42;1.05;;;11.00;99.90;;;;;;6278412;22;20075;-89
2021/10/11 03:09:12;;;;;;;2.20;1.35;;;11.00;99.90;;;;;;6278094;22;20058;-89
2021/10/11 03:11:37;;;;;;;3.75;1.23;;;10.90;99.90;;;;;;6278204;22;20030;-89
2021/10/11 03:14:03;;;;;;;4.13;1.65;;;10.90;99.90;;;;;;6251040;22;20477;-89
2021/10/11 03:16:29;;;;;;;4.97;1.20;;;10.90;99.90;;;;;;6250601;22;20014;-88
2021/10/11 03:18:55;;;;;;;3.20;1.23;;;10.80;99.90;;;;;;6250754;22;20006;-89
2021/10/11 03:21:21;;;;;;;3.17;1.30;;;10.80;99.90;;;;;;6250796;22;20007;-88
2021/10/11 03:23:49;;;;;;;3.83;1.30;;;10.80;99.90;;;;;;6251157;22;20030;-89
2021/10/11 03:26:15;;;;;;;3.83;1.17;;;10.80;99.90;;;;;;6225644;22;20053;-90
2021/10/11 03:28:43;;;;;;;4.30;1.33;;;10.80;99.90;;;;;;6249943;22;20004;-89
2021/10/11 03:31:08;;;;;;;2.25;1.23;;;10.80;99.90;;;;;;6250692;22;20039;-88
2021/10/11 03:33:34;;;;;;;3.35;1.20;;;10.80;99.90;;;;;;6250715;22;20003;-89
2021/10/11 03:36:00;;;;;;;3.35;0.98;;;10.80;99.90;;;;;;6250319;22;20014;-88
2021/10/11 03:38:26;;;;;;;2.08;1.20;;;10.70;99.90;;;;;;6277848;22;20015;-89
2021/10/11 03:40:51;;;;;;;3.55;1.15;;;10.60;99.90;;;;;;6277391;22;20004;-89
2021/10/11 03:43:17;;;;;;;4.05;1.30;;;10.60;99.90;;;;;;6250915;22;20004;-88
2021/10/11 03:45:43;;;;;;;2.60;1.25;;;10.50;99.90;;;;;;6250887;22;20016;-89
2021/10/11 03:48:09;;;;;;;5.25;1.38;;;10.50;99.90;;;;;;6250635;22;20412;-89
2021/10/11 03:50:35;;;;;;;2.70;1.23;;;10.40;99.90;;;;;;6251156;22;20042;-89
2021/10/11 03:53:00;;;;;;;2.58;1.33;;;10.30;99.90;;;;;;6251183;22;20003;-89
2021/10/11 03:55:26;;;;;;;6.82;1.55;;;10.30;99.90;;;;;;6252513;22;20003;-90
2021/10/11 03:57:52;;;;;;;2.22;1.20;;;10.20;99.90;;;;;;6252404;22;20057;-88
2021/10/11 04:00:18;;;;;;;3.67;1.80;;;10.20;99.90;;;;;;6252872;22;20004;-89
2021/10/11 04:02:44;;;;;;;2.97;1.60;;;10.10;99.90;;;;;;6227225;22;20430;-90
2021/10/11 04:05:10;;;;;;;3.05;1.70;;;10.10;99.90;;;;;;6252979;22;20014;-90
2021/10/11 04:07:39;;;;;;;2.65;1.40;;;10.10;99.90;;;;;;6252780;22;20011;-89
2021/10/11 04:10:06;;;;;;;3.28;1.13;;;10.00;99.90;;;;;;6252458;22;20411;-89
2021/10/11 04:12:36;;;;;;;4.15;1.55;;;10.00;99.90;;;;;;6252677;22;19996;-89
2021/10/11 04:15:04;;;;;;;3.42;1.23;;;10.00;99.90;;;;;;6252569;22;19996;-90
2021/10/11 04:17:30;;;;;;;2.67;1.00;;;10.00;99.90;;;;;;6227688;22;20012;-89
2021/10/11 04:19:56;;;;;;;2.40;1.27;;;9.90;99.90;;;;;;6252821;22;20003;-89
2021/10/11 04:22:22;;;;;;;2.63;1.02;;;9.90;99.90;;;;;;6253119;22;20087;-89
2021/10/11 04:24:48;;;;;;;2.45;1.27;;;9.90;99.90;;;;;;6252724;22;19996;-89
2021/10/11 04:27:14;;;;;;;3.95;1.17;;;9.90;99.90;;;;;;6252474;22;19999;-89
2021/10/11 04:29:40;;;;;;;2.38;1.10;;;9.80;99.90;;;;;;6252518;22;19995;-89
2021/10/11 04:32:06;;;;;;;2.38;1.20;;;9.90;99.90;;;;;;6252084;22;20004;-90
2021/10/11 04:34:32;;;;;;;3.83;1.20;;;9.80;99.90;;;;;;6246987;22;20020;-90
2021/10/11 04:36:58;;;;;;;4.18;1.10;;;9.80;99.90;;;;;;6224432;22;20487;-90
2021/10/11 04:39:25;;;;;;;3.35;1.50;;;9.80;99.90;;;;;;6250627;22;20408;-90
2021/10/11 04:41:53;;;;;;;3.30;1.52;;;9.70;99.90;;;;;;6251084;22;20003;-89
2021/10/11 04:44:21;;;;;;;2.08;1.20;;;9.70;99.90;;;;;;6254539;22;20011;-90
2021/10/11 04:46:48;;;;;;;4.55;1.40;;;9.70;99.90;;;;;;6252314;22;20003;-90
2021/10/11 04:49:15;;;;;;;2.25;1.23;;;9.70;99.90;;;;;;6250326;22;20003;-90
2021/10/11 04:51:41;;;;;;;4.72;1.55;;;9.60;99.90;;;;;;6250216;22;20008;-90
2021/10/11 04:54:09;;;;;;;2.92;1.45;;;9.60;99.90;;;;;;6249581;22;20034;-90
2021/10/11 04:56:35;;;;;;;2.88;1.40;;;9.60;99.90;;;;;;6248730;22;20008;-89
2021/10/11 04:59:01;;;;;;;4.05;1.30;;;9.60;99.90;;;;;;6248868;22;20020;-89
2021/10/11 05:01:28;;;;;;;3.08;1.20;;;9.60;99.90;;;;;;6224396;22;20007;-89
2021/10/11 05:03:55;;;;;;;4.25;1.40;;;9.60;99.90;;;;;;6249517;22;20035;-89
2021/10/11 05:06:23;;;;;;;3.65;1.48;;;9.50;99.90;;;;;;6248353;22;20015;-89
2021/10/11 05:08:49;;;;;;;2.65;1.50;;;9.50;99.90;;;;;;6275832;22;20077;-88
2021/10/11 05:11:14;;;;;;;2.70;1.50;;;9.50;99.90;;;;;;6276086;22;20362;-88
2021/10/11 05:13:41;;;;;;;2.10;1.25;;;9.50;99.90;;;;;;6248918;22;20000;-89
2021/10/11 05:16:12;;;;;;;2.92;1.50;;;9.50;99.90;;;;;;6248058;22;20044;-89
2021/10/11 05:18:39;;;;;;;3.63;1.50;;;9.50;99.90;;;;;;6251079;22;19995;-89
2021/10/11 05:21:06;;;;;;;3.47;1.73;;;9.50;99.90;;;;;;6225899;22;20301;-88
2021/10/11 05:23:32;;;;;;;2.45;1.38;;;9.40;99.90;;;;;;6251634;22;19996;-89
2021/10/11 05:25:58;;;;;;;4.10;1.40;;;9.50;99.90;;;;;;6251134;22;20011;-89
2021/10/11 05:28:29;;;;;;;2.97;1.60;;;9.40;99.90;;;;;;6249701;22;20090;-89
2021/10/11 05:30:57;;;;;;;4.63;1.70;;;9.40;99.90;;;;;;6226236;22;20003;-88
2021/10/11 05:33:23;;;;;;;3.13;1.52;;;9.40;99.90;;;;;;6251036;22;20061;-88
2021/10/11 05:35:52;;;;;;;3.53;1.40;;;9.40;99.90;;;;;;6251535;22;20003;-89
2021/10/11 05:38:19;;;;;;;3.90;1.85;;;9.40;99.90;;;;;;6251732;22;20412;-88
2021/10/11 05:40:45;;;;;;;2.83;1.50;;;9.30;99.90;;;;;;6225593;22;20011;-89
2021/10/11 05:43:11;;;;;;;2.88;1.50;;;9.30;99.90;;;;;;6226431;22;20427;-89
2021/10/11 05:45:37;;;;;;;3.10;1.40;;;9.30;99.90;;;;;;6279217;22;20029;-89
2021/10/11 05:48:04;;;;;;;4.45;1.85;;;9.30;99.90;;;;;;6277001;22;20403;-89
2021/10/11 05:50:30;;;;;;;3.75;1.40;;;9.30;99.90;;;;;;6250241;22;20004;-89
2021/10/11 05:52:56;;;;;;;4.57;1.98;;;9.20;99.90;;;;;;6200426;22;20011;-90
2021/10/11 05:55:22;;;;;;;3.33;1.60;;;9.20;99.90;;;;;;6274137;22;20324;-90
2021/10/11 05:57:47;;;;;;;5.97;1.80;;;9.20;99.90;;;;;;6248624;22;20012;-90
2021/10/11 06:00:17;;;;;;;4.35;1.48;;;9.20;99.90;;;;;;6247274;22;20032;-89
2021/10/11 06:02:43;;;;;;;2.05;1.40;;;9.20;99.90;;;;;;6249367;22;20008;-89
2021/10/11 06:05:10;;;;;;;3.45;1.30;;;9.20;99.90;;;;;;6247896;22;20010;-89
2021/10/11 06:07:36;;;;;;;5.95;2.17;;;9.20;99.90;;;;;;6248456;22;20304;-89
2021/10/11 06:10:03;;;;;;;5.13;1.48;;;9.20;99.90;;;;;;6248309;22;20061;-88
2021/10/11 06:12:30;;;;;;;4.25;1.80;;;9.20;99.90;;;;;;6248574;22;20032;-89
2021/10/11 06:15:08;;;;;;;4.55;1.77;;;9.20;99.90;;;;;;6248552;22;20018;-88
2021/10/11 06:17:34;;;;;;;3.65;1.35;;;9.20;99.90;;;;;;6248043;22;20011;-89
2021/10/11 06:20:01;;;;;;;4.25;1.67;;;9.20;99.90;;;;;;6247180;22;20038;-89
2021/10/11 06:22:28;;;;;;;4.65;1.50;;;9.30;99.90;;;;;;6248402;22;20011;-88
2021/10/11 06:24:54;;;;;;;5.63;1.50;;;9.30;99.90;;;;;;6276645;22;20420;-88
2021/10/11 06:27:20;;;;;;;5.32;2.00;;;9.40;99.90;;;;;;6251626;22;20004;-88
2021/10/11 06:29:47;;;;;;;2.78;1.30;;;9.50;99.90;;;;;;6225191;22;20011;-87
2021/10/11 06:32:13;;;;;;;5.28;1.83;;;9.60;99.90;;;;;;6250536;22;20054;-90
2021/10/11 06:34:40;;;;;;;5.03;1.60;;;9.60;99.90;;;;;;6250403;22;20424;-89
2021/10/11 06:37:05;;;;;;;2.65;1.35;;;9.70;99.90;;;;;;6225452;22;20106;-89
2021/10/11 06:39:32;;;;;;;3.53;1.60;;;9.80;99.90;;;;;;6250345;22;20078;-87
2021/10/11 06:41:57;;;;;;;3.00;1.50;;;9.90;99.90;;;;;;6249757;22;20004;-87
2021/10/11 06:44:23;;;;;;;4.63;1.45;;;9.90;99.90;;;;;;6250546;22;20108;-88
2021/10/11 06:46:49;;;;;;;7.70;2.38;;;10.00;99.90;;;;;;6277995;22;19999;-87
2021/10/11 06:49:15;;;;;;;5.53;1.85;;;10.10;99.90;;;;;;6280363;22;19996;-89
2021/10/11 06:51:41;;;;;;;5.75;2.08;;;10.20;99.90;;;;;;6250548;22;20061;-88
2021/10/11 06:54:06;;;;;;;3.92;1.90;;;10.20;99.90;;;;;;6250318;22;20000;-89
2021/10/11 06:56:32;;;;;;;4.45;1.80;;;10.30;99.90;;;;;;6250377;22;20008;-87
2021/10/11 06:58:58;;;;;;;4.68;2.10;;;10.30;99.90;;;;;;6276709;22;20087;-88
2021/10/11 07:01:24;;;;;;;5.85;2.20;;;10.30;99.90;;;;;;6224956;22;20035;-88
2021/10/11 07:03:51;;;;;;;5.20;2.10;;;10.30;99.90;;;;;;6249532;22;20002;-88
2021/10/11 07:06:21;;;;;;;5.38;2.28;;;10.40;99.90;;;;;;6250549;22;20126;-88
2021/10/11 07:08:47;;;;;;;5.10;2.10;;;10.40;99.90;;;;;;6250274;22;20327;-87
2021/10/11 07:11:13;;;;;;;4.03;1.63;;;10.40;99.90;;;;;;6251239;22;20029;-89
2021/10/11 07:13:39;;;;;;;3.28;1.60;;;10.50;99.90;;;;;;6253624;22;20066;-87
2021/10/11 07:16:05;;;;;;;5.72;1.83;;;10.50;99.90;;;;;;6250438;22;20340;-88
2021/10/11 07:18:35;;;;;;;6.00;1.73;;;10.60;99.90;;;;;;6250365;22;20060;-88
2021/10/11 07:21:04;;;;;;;6.72;2.45;;;10.60;99.90;;;;;;6225774;22;20004;-88
2021/10/11 07:23:31;;;;;;;7.97;2.55;;;10.70;99.90;;;;;;6250572;22;20534;-88
2021/10/11 07:26:06;;;;;;;4.85;2.28;;;10.70;99.90;;;;;;6250151;22;20003;-88
2021/10/11 07:28:32;;;;;;;4.60;3.10;;;10.80;99.90;;;;;;6226018;22;20019;-89
2021/10/11 07:30:58;;;;;;;6.22;2.22;;;10.80;99.90;;;;;;6226778;22;20007;-89
2021/10/11 07:33:25;;;;;;;5.45;2.88;;;10.90;99.90;;;;;;6279671;22;20052;-89
2021/10/11 07:35:55;;;;;;;4.50;2.38;;;10.90;99.90;;;;;;6252527;22;20008;-90
2021/10/11 07:38:21;;;;;;;5.95;2.63;;;10.90;99.90;;;;;;6202000;22;20008;-89
2021/10/11 07:40:49;;;;;;;8.02;3.10;;;11.00;99.90;;;;;;6277889;22;20513;-90
2021/10/11 07:43:15;;;;;;;8.13;3.28;;;11.00;99.90;;;;;;6252287;22;20004;-88
2021/10/11 07:45:41;;;;;;;4.43;2.78;;;11.00;99.90;;;;;;6226274;22;20020;-89
2021/10/11 07:48:08;;;;;;;6.45;2.80;;;11.00;99.90;;;;;;6251892;22;20065;-89
2021/10/11 07:50:34;;;;;;;7.55;2.90;;;11.00;99.90;;;;;;6279026;22;19995;-89
2021/10/11 07:53:00;;;;;;;8.07;2.80;;;11.10;99.90;;;;;;6250722;22;20003;-89
2021/10/11 07:55:25;;;;;;;7.18;2.63;;;11.10;99.90;;;;;;6251665;22;20007;-89
2021/10/11 07:57:51;;;;;;;5.28;2.70;;;11.20;99.90;;;;;;6278065;22;20095;-89
2021/10/11 08:00:19;;;;;;;5.35;2.97;;;11.20;99.90;;;;;;6252475;22;20003;-91
2021/10/11 08:02:48;;;;;;;6.40;3.00;;;11.10;99.90;;;;;;6253547;22;20000;-88
2021/10/11 08:05:14;;;;;;;6.93;2.85;;;11.20;99.90;;;;;;6254236;22;20423;-90
2021/10/11 08:07:46;;;;;;;6.80;3.25;;;11.20;99.90;;;;;;6251873;22;20011;-88
2021/10/11 08:10:13;;;;;;;8.23;3.45;;;11.30;99.90;;;;;;6224786;22;20016;-89
2021/10/11 08:12:39;;;;;;;6.68;3.38;;;11.30;99.90;;;;;;6252327;22;20022;-89
2021/10/11 08:15:07;;;;;;;6.97;3.50;;;11.40;99.90;;;;;;6225824;22;20481;-88
2021/10/11 08:17:34;;;;;;;9.80;3.13;;;11.50;99.90;;;;;;6252470;22;20071;-87
2021/10/11 08:20:00;;;;;;;5.70;2.90;;;11.60;99.90;;;;;;6252921;22;20014;-88
2021/10/11 08:22:26;;;;;;;6.05;3.40;;;11.70;99.90;;;;;;6251945;22;20007;-87
2021/10/11 08:24:53;;;;;;;6.47;3.22;;;11.80;99.90;;;;;;6252606;22;20004;-88
2021/10/11 08:27:23;;;;;;;7.22;3.53;;;11.80;99.90;;;;;;6226912;22;19999;-87
2021/10/11 08:29:53;;;;;;;5.68;2.47;;;11.90;99.90;;;;;;6251149;22;20004;-88
2021/10/11 08:32:24;;;;;;;4.93;2.20;;;11.90;99.90;;;;;;6252172;22;20029;-88
2021/10/11 08:34:51;;;;;;;6.50;2.92;;;12.00;99.90;;;;;;6252413;22;20053;-88
2021/10/11 08:37:17;;;;;;;6.82;3.03;;;12.10;99.90;;;;;;6226915;22;20043;-88
2021/10/11 08:39:45;;;;;;;6.13;2.83;;;12.10;99.90;;;;;;6252030;22;20440;-89
2021/10/11 08:42:12;;;;;;;6.35;2.85;;;12.10;99.90;;;;;;6252127;22;20069;-90
2021/10/11 08:44:38;;;;;;;7.43;3.08;;;12.20;99.90;;;;;;6252384;22;20007;-90
2021/10/11 08:47:11;;;;;;;7.50;3.00;;;12.30;99.90;;;;;;6224722;22;20011;-89
2021/10/11 08:49:45;;;;;;;7.38;3.40;;;12.40;99.90;;;;;;6251222;22;20003;-90
2021/10/11 08:52:12;;;;;;;6.82;2.65;;;12.60;99.90;;;;;;6250701;22;20003;-90
2021/10/11 08:54:39;;;;;;;7.25;3.30;;;12.70;99.90;;;;;;6251159;22;20000;-90
2021/10/11 08:57:05;;;;;;;8.23;3.35;;;12.80;99.90;;;;;;6251820;22;20004;-89
2021/10/11 08:59:31;;;;;;;8.27;3.00;;;12.90;99.90;;;;;;6250698;22;20012;-90
2021/10/11 09:02:09;;;;;;;6.35;2.38;;;13.00;99.90;;;;;;6250992;22;20004;-90
2021/10/11 09:04:50;;;;;;;6.40;3.10;;;13.10;99.90;;;;;;6251064;22;20435;-90
2021/10/11 09:07:16;;;;;;;8.93;2.75;;;13.20;99.90;;;;;;6251822;22;20014;-90
2021/10/11 09:09:49;;;;;;;8.00;2.33;;;13.30;99.90;;;;;;6251074;22;20012;-90
2021/10/11 09:12:20;;;;;;;;;;;13.40;99.90;;;;;;6227305;22;20004;-90
2021/10/11 09:15:09;;;;;;;5.55;1.90;;;13.40;99.90;;;;;;6251759;22;20290;-90
2021/10/11 09:17:41;;;;;;;6.47;2.15;;;13.60;99.90;;;;;;6254539;22;20090;-90
2021/10/11 09:20:24;;;;;;;7.80;2.60;;;13.70;99.90;;;;;;6279171;22;20006;-91
2021/10/11 09:22:52;;;;;;;4.43;1.77;;;13.90;99.90;;;;;;6251756;22;19996;-90
2021/10/11 09:25:20;;;;;;;6.25;2.58;;;14.00;99.90;;;;;;6278827;22;20354;-90
2021/10/11 09:27:58;;;;;;;6.55;2.08;;;14.10;99.90;;;;;;6278760;22;20073;-90
2021/10/11 09:30:41;;;;;;;5.20;2.45;;;14.10;99.90;;;;;;6226636;22;20012;-91
2021/10/11 09:33:23;;;;;;;5.80;2.08;;;14.20;99.90;;;;;;6228561;22;20004;-91
2021/10/11 09:35:52;;;;;;;7.10;2.10;;;14.20;99.90;;;;;;6252187;22;20057;-92
2021/10/11 09:38:27;;;;;;;7.07;2.60;;;14.30;99.90;;;;;;6228490;22;20008;-90
2021/10/11 09:40:58;;;;;;;6.53;2.17;;;14.30;99.90;;;;;;6237278;22;20010;-90
2021/10/11 09:43:32;;;;;;;6.22;2.25;;;14.40;99.90;;;;;;6276989;22;20073;-90
2021/10/11 09:46:13;;;;;;;7.95;2.35;;;14.50;99.90;;;;;;6277975;22;20023;-90
2021/10/11 09:48:58;;;;;;;6.32;2.10;;;14.60;99.90;;;;;;6254090;22;20004;-89
2021/10/11 09:51:26;;;;;;;7.22;2.60;;;14.70;99.90;;;;;;6277556;22;20173;-91
2021/10/11 09:53:54;;;;;;;7.07;2.20;;;14.70;99.90;;;;;;6252793;22;20000;-91
2021/10/11 09:56:25;;;;;;;6.45;1.83;;;14.70;99.90;;;;;;6251498;22;20340;-92
2021/10/11 09:58:56;;;;;;;7.63;2.38;;;14.70;99.90;;;;;;6222235;23;20020;-89
2021/10/11 10:01:22;;;;;;;4.38;2.30;;;14.70;99.90;;;;;;6246532;23;20001;-91
2021/10/11 10:03:50;;;;;;;7.93;2.05;;;14.70;99.90;;;;;;6246545;23;20087;-90
2021/10/11 10:06:20;;;;;;;6.78;2.20;;;14.70;99.90;;;;;;6247696;22;20020;-91
2021/10/11 10:08:49;;;;;;;5.40;1.83;;;14.60;99.90;;;;;;6245770;23;20012;-91
2021/10/11 10:11:17;;;;;;;4.47;1.35;;;14.60;99.90;;;;;;6245924;23;20011;-90
2021/10/11 10:13:49;;;;;;;5.47;1.80;;;14.70;99.90;;;;;;6246589;23;19999;-91
2021/10/11 10:16:18;;;;;;;5.40;1.75;;;14.70;99.90;;;;;;6246331;23;20012;-91
2021/10/11 10:18:44;;;;;;;5.25;1.60;;;14.70;99.90;;;;;;6247077;23;20007;-91
2021/10/11 10:21:13;;;;;;;4.45;1.90;;;14.70;99.90;;;;;;6246514;23;20079;-91
2021/10/11 10:23:44;;;;;;;6.50;2.20;;;14.80;99.90;;;;;;6246464;23;20000;-90
2021/10/11 10:26:12;;;;;;;6.50;2.17;;;14.90;99.90;;;;;;6245784;23;20012;-90
2021/10/11 10:28:51;;;;;;;7.32;1.90;;;15.20;99.90;;;;;;6246331;23;20404;-91
2021/10/11 10:31:35;;;;;;;5.07;1.65;;;15.60;99.90;;;;;;6220704;23;20087;-90
2021/10/11 10:34:15;;;;;;;7.53;1.88;;;15.90;99.90;;;;;;6246369;23;20302;-91
2021/10/11 10:36:43;;;;;;;7.20;2.20;;;16.10;99.90;;;;;;6223863;23;20364;-91
2021/10/11 10:39:13;;;;;;;6.55;1.90;;;16.70;99.90;;;;;;6246146;23;20387;-91
2021/10/11 10:41:43;;;;;;;5.03;1.63;;;17.40;99.90;;;;;;6221150;23;20470;-91
2021/10/11 10:44:20;;;;;;;7.20;1.92;;;18.40;99.90;;;;;;6247697;23;20387;-91
2021/10/11 10:47:06;;;;;;;4.07;1.73;;;18.90;99.90;;;;;;6246693;23;20412;-91
2021/10/11 10:49:35;;;;;;;5.65;1.80;;;19.30;99.90;;;;;;6224141;23;20000;-90
2021/10/11 10:52:08;;;;;;;5.32;1.92;;;20.10;99.90;;;;;;6245959;23;20357;-90
2021/10/11 10:55:00;;;;;;;6.75;1.73;;;20.50;99.90;;;;;;6248785;23;20000;-89
2021/10/11 10:57:33;;;;;;;8.82;1.77;;;20.60;99.90;;;;;;6248850;22;20496;-90
2021/10/11 11:00:03;;;;;;;9.05;1.90;;;20.40;99.90;;;;;;6227575;22;20419;-90
2021/10/11 11:02:32;;;;;;;5.50;1.77;;;20.40;99.90;;;;;;6227673;22;20030;-89
2021/10/11 11:05:15;;;;;;;4.70;1.17;;;20.30;99.90;;;;;;6253030;22;20004;-89
2021/10/11 11:07:45;;;;;;;5.05;1.30;;;20.00;99.90;;;;;;6228401;22;20427;-89
2021/10/11 11:10:34;;;;;;;5.70;1.30;;;19.60;99.90;;;;;;6227661;22;20316;-87
2021/10/11 11:13:06;;;;;;;6.03;1.38;;;19.10;99.90;;;;;;6224966;22;20475;-91
2021/10/11 11:15:40;;;;;;;4.95;1.02;;;18.90;99.90;;;;;;6255233;22;19996;-91
2021/10/11 11:18:15;;;;;;;3.40;1.08;;;19.80;99.90;;;;;;6227322;22;20323;-92
2021/10/11 11:20:42;;;;;;;5.88;1.75;;;21.00;99.90;;;;;;6249799;22;20007;-91
2021/10/11 11:23:11;;;;;;;6.10;1.15;;;21.90;99.90;;;;;;6276681;22;20498;-89
2021/10/11 11:25:41;;;;;;;4.95;1.15;;;22.50;99.90;;;;;;6250783;22;20004;-90
2021/10/11 11:28:11;;;;;;;4.93;1.25;;;23.10;99.90;;;;;;6250564;22;20014;-91
2021/10/11 11:30:38;;;;;;;5.72;1.15;;;22.90;99.90;;;;;;6224932;22;20004;-91
2021/10/11 11:33:15;;;;;;;4.93;1.20;;;22.40;99.90;;;;;;6250122;22;20034;-91
2021/10/11 11:35:48;;;;;;;4.35;1.20;;;22.30;99.90;;;;;;6251276;22;20010;-90
2021/10/11 11:38:19;;;;;;;5.13;1.00;;;22.20;99.90;;;;;;6224121;22;20019;-92
2021/10/11 11:40:57;;;;;;;3.90;0.90;;;21.70;99.90;;;;;;6225321;22;20008;-92
2021/10/11 11:43:24;;;;;;;3.75;1.33;;;21.10;99.90;;;;;;6250417;22;20000;-92
2021/10/11 11:45:55;;;;;;;3.65;0.90;;;20.70;99.90;;;;;;6278454;22;20027;-93
2021/10/11 11:48:42;;;;;;;3.88;0.80;;;20.70;99.90;;;;;;6249816;22;20000;-93
2021/10/11 11:51:14;;;;;;;4.03;1.33;;;20.70;99.90;;;;;;6250231;22;20004;-92
2021/10/11 11:53:40;;;;;;;3.40;1.00;;;20.40;99.90;;;;;;6249160;22;20309;-92
2021/10/11 11:56:07;;;;;;;5.32;1.17;;;20.10;99.90;;;;;;6224590;22;20061;-92
2021/10/11 11:58:39;;;;;;;3.05;0.77;;;19.90;99.90;;;;;;6244476;23;20018;-92
2021/10/11 12:01:19;;;;;;;3.42;0.95;;;19.40;99.90;;;;;;6244786;23;20079;-91
2021/10/11 12:03:53;;;;;;;3.55;0.70;;;18.90;99.90;;;;;;6244550;23;20008;-92
2021/10/11 12:06:26;;;;;;;4.05;0.80;;;18.40;99.90;;;;;;6247318;23;20347;-91
2021/10/11 12:08:56;;;;;;;3.60;0.63;;;18.10;99.90;;;;;;6246047;23;20527;-93
2021/10/11 12:11:26;;;;;;;2.92;0.88;;;18.30;99.90;;;;;;6245086;23;20416;-91
2021/10/11 12:13:59;;;;;;;6.15;0.75;;;19.60;99.90;;;;;;6217556;23;20016;-92
2021/10/11 12:16:27;;;;;;;3.13;0.85;;;20.70;99.90;;;;;;6219838;23;20016;-92
2021/10/11 12:18:55;;;;;;;6.50;1.08;;;21.30;99.90;;;;;;6244590;23;20004;-92
2021/10/11 12:21:25;;;;;;;4.20;1.10;;;22.00;99.90;;;;;;6243769;23;20005;-92
2021/10/11 12:23:53;;;;;;;3.47;0.90;;;22.50;99.90;;;;;;6244051;23;20381;-91
2021/10/11 12:27:05;;;;;;;2.97;0.60;;;22.50;99.90;;;;;;6245237;23;20000;-92
2021/10/11 12:29:47;;;;;;;2.78;0.70;;;22.80;99.90;;;;;;6237508;23;20005;-93
2021/10/11 12:32:13;;;;;;;3.88;0.80;;;23.30;99.90;;;;;;6243723;23;20008;-92
2021/10/11 12:34:42;;;;;;;7.18;1.15;;;23.30;99.90;;;;;;6243569;23;20004;-93
2021/10/11 12:37:11;;;;;;;4.50;0.90;;;22.80;99.90;;;;;;6244970;23;20039;-92
2021/10/11 12:39:40;;;;;;;4.55;0.60;;;21.90;99.90;;;;;;6243645;23;20007;-92
2021/10/11 12:42:17;;;;;;;5.47;0.95;;;21.00;99.90;;;;;;6237595;23;20130;-92
2021/10/11 12:44:53;;;;;;;5.00;0.98;;;20.20;99.90;;;;;;6238254;23;20008;-93
2021/10/11 12:47:24;;;;;;;2.58;0.55;;;19.40;99.90;;;;;;6239406;23;20492;-92
2021/10/11 12:49:56;;;;;;;6.05;0.98;;;18.70;99.90;;;;;;6238713;23;20097;-91
2021/10/11 12:52:36;;;;;;;4.85;0.95;;;18.30;99.90;;;;;;6239153;23;20008;-90
2021/10/11 12:55:11;;;;;;;5.38;0.90;;;17.70;99.90;;;;;;6242327;23;20004;-90